Terminal Aerodrome Forecast
Issued by NWS Wilmington, OH

Home | Current Version | Previous Version | Text Only | Print | Product List | Glossary On
Versions: 1 2 3 4 5 6 7 8 9 10 11 12 13 14 15 16 17 18 19 20 21 22 23
442
FTUS41 KILN 280528
TAFCVG
TAF
KCVG 280528Z 2806/2912 27005KT P6SM FEW200
     FM281300 12008KT P6SM BKN200
     FM290000 12009KT P6SM VCSH SCT050 OVC080
     FM290300 18010KT P6SM VCSH OVC050 WS020/21040KT
     FM290600 21010KT P6SM -SHRA OVC060
     FM290800 20009KT P6SM -SHRA OVC030=

USA.gov is the U.S. government's official web portal to all federal, state and local government web resources and services.